createdAt,value
2018-04-24T00:00:20.313Z,4.23
2018-04-24T00:02:48.633Z,4.40
2018-04-24T00:05:16.953Z,4.90
2018-04-24T00:07:45.296Z,5.43
2018-04-24T00:10:13.630Z,4.30
2018-04-24T00:12:41.972Z,3.80
2018-04-24T00:15:10.296Z,4.10
2018-04-24T00:17:38.641Z,4.30
2018-04-24T00:20:06.961Z,4.50
2018-04-24T00:22:35.304Z,4.13
2018-04-24T00:25:03.633Z,4.50
2018-04-24T00:27:31.978Z,3.63
2018-04-24T00:30:00.312Z,3.85
2018-04-24T00:32:28.673Z,3.85
2018-04-24T00:34:57.013Z,4.03
2018-04-24T00:37:25.369Z,4.53
2018-04-24T00:39:53.689Z,4.00
2018-04-24T00:42:22.044Z,4.18
2018-04-24T00:44:50.370Z,3.70
2018-04-24T00:47:18.725Z,3.65
2018-04-24T00:49:47.041Z,3.53
2018-04-24T00:52:15.385Z,4.10
2018-04-24T00:54:43.704Z,3.57
2018-04-24T00:57:12.056Z,4.07
2018-04-24T00:59:40.388Z,4.80
2018-04-24T01:02:08.738Z,5.10
2018-04-24T01:04:37.069Z,5.40
2018-04-24T01:07:05.417Z,6.23
2018-04-24T01:09:33.761Z,6.25
2018-04-24T01:12:02.104Z,6.00
2018-04-24T01:14:30.441Z,6.32
2018-04-24T01:16:58.780Z,6.07
2018-04-24T01:19:27.116Z,6.45
2018-04-24T01:21:55.465Z,6.63
2018-04-24T01:24:23.801Z,6.50
2018-04-24T01:26:52.160Z,5.90
2018-04-24T01:29:20.498Z,5.40
2018-04-24T01:31:48.825Z,6.40
2018-04-24T01:34:17.185Z,6.07
2018-04-24T01:36:45.525Z,5.78
2018-04-24T01:39:13.879Z,6.82
2018-04-24T01:41:42.217Z,6.32
2018-04-24T01:44:10.581Z,6.10
2018-04-24T01:46:38.908Z,5.62
2018-04-24T01:49:07.269Z,6.30
2018-04-24T01:51:35.592Z,6.63
2018-04-24T01:54:03.943Z,6.22
2018-04-24T01:56:32.290Z,7.07
2018-04-24T01:59:00.650Z,5.57
2018-04-24T02:01:28.994Z,6.60
2018-04-24T02:03:57.348Z,6.37
2018-04-24T02:06:25.691Z,6.32
2018-04-24T02:08:54.054Z,6.65
2018-04-24T02:11:22.393Z,6.12
2018-04-24T02:13:50.747Z,6.77
2018-04-24T02:16:19.068Z,7.00
2018-04-24T02:18:47.428Z,7.22
2018-04-24T02:21:15.770Z,6.95
2018-04-24T02:23:44.120Z,6.55
2018-04-24T02:26:12.461Z,7.05
2018-04-24T02:28:40.826Z,6.28
2018-04-24T02:31:09.155Z,6.80
2018-04-24T02:33:37.505Z,7.07
2018-04-24T02:36:05.849Z,6.93
2018-04-24T02:38:34.191Z,7.72
2018-04-24T02:41:02.524Z,6.78
2018-04-24T02:43:30.876Z,7.00
2018-04-24T02:45:59.213Z,7.80
2018-04-24T02:48:27.570Z,6.70
2018-04-24T02:50:55.904Z,7.28
2018-04-24T02:53:24.260Z,6.25
2018-04-24T02:55:52.592Z,6.82
2018-04-24T02:58:20.961Z,6.87
2018-04-24T03:00:49.293Z,6.68
2018-04-24T03:03:17.641Z,6.55
2018-04-24T03:05:45.980Z,7.70
2018-04-24T03:08:14.345Z,7.68
2018-04-24T03:10:42.692Z,9.25
2018-04-24T03:13:11.044Z,6.87
2018-04-24T03:15:39.390Z,7.90
2018-04-24T03:18:07.745Z,8.48
2018-04-24T03:20:36.089Z,8.48
2018-04-24T03:23:04.453Z,8.80
2018-04-24T03:25:32.793Z,8.77
2018-04-24T03:28:01.127Z,8.80
2018-04-24T03:30:29.480Z,8.80
2018-04-24T03:32:57.817Z,9.07
2018-04-24T03:35:26.172Z,9.30
2018-04-24T03:37:54.513Z,10.18
2018-04-24T03:40:22.880Z,10.45
2018-04-24T03:42:51.212Z,9.52
2018-04-24T03:45:19.568Z,10.98
2018-04-24T03:47:47.907Z,12.45
2018-04-24T03:50:16.276Z,12.90
2018-04-24T03:52:44.621Z,13.23
2018-04-24T03:55:12.985Z,13.45
2018-04-24T03:57:41.338Z,13.25
2018-04-24T04:00:09.686Z,15.45
2018-04-24T04:02:38.037Z,14.77
2018-04-24T04:05:06.397Z,15.32
2018-04-24T04:07:34.748Z,14.10
2018-04-24T04:10:03.104Z,12.27
2018-04-24T04:12:31.464Z,12.85
2018-04-24T04:14:59.824Z,12.05
2018-04-24T04:17:39.814Z,11.57
2018-04-24T04:20:19.978Z,10.68
2018-04-24T04:23:00.125Z,10.45
2018-04-24T04:25:28.527Z,9.10
2018-04-24T04:27:56.853Z,10.30
2018-04-24T04:30:25.209Z,8.70
2018-04-24T04:32:53.637Z,9.70
2018-04-24T04:35:21.909Z,10.55
2018-04-24T04:37:50.412Z,9.20
2018-04-24T04:40:18.764Z,9.03
2018-04-24T04:42:47.102Z,9.05
2018-04-24T04:45:15.464Z,8.27
2018-04-24T04:47:43.902Z,7.67
2018-04-24T04:50:12.183Z,8.83
2018-04-24T04:52:40.525Z,9.45
2018-04-24T04:55:08.880Z,7.70
2018-04-24T04:57:38.194Z,8.55
2018-04-24T05:00:06.629Z,8.07
2018-04-24T05:02:34.964Z,9.10
2018-04-24T05:05:03.316Z,8.90
2018-04-24T05:07:31.655Z,9.47
2018-04-24T05:10:00.000Z,9.23
2018-04-24T05:12:28.337Z,10.02
2018-04-24T05:14:56.707Z,10.80
2018-04-24T05:17:25.029Z,9.43
2018-04-24T05:19:53.378Z,9.70
2018-04-24T05:22:21.700Z,9.53
2018-04-24T05:24:50.948Z,8.15
2018-04-24T05:27:19.280Z,8.70
2018-04-24T05:29:47.635Z,8.47
2018-04-24T05:32:15.978Z,8.27
2018-04-24T05:34:44.328Z,9.40
2018-04-24T05:37:12.670Z,8.80
2018-04-24T05:39:41.025Z,7.95
2018-04-24T05:42:09.357Z,8.73
2018-04-24T05:44:38.579Z,8.18
2018-04-24T05:47:06.908Z,8.53
2018-04-24T05:49:35.261Z,13.63
2018-04-24T05:52:03.613Z,8.10
2018-04-24T05:54:32.109Z,7.15
2018-04-24T05:57:00.446Z,7.13
2018-04-24T05:59:28.780Z,7.57
2018-04-24T06:01:57.136Z,7.40
2018-04-24T06:04:26.196Z,7.12
2018-04-24T06:06:54.547Z,8.23
2018-04-24T06:09:22.885Z,6.93
2018-04-24T06:11:51.240Z,6.05
2018-04-24T06:14:19.648Z,6.70
2018-04-24T06:16:48.001Z,6.00
2018-04-24T06:19:16.328Z,5.70
2018-04-24T06:21:44.682Z,5.50
2018-04-24T06:24:13.014Z,5.70
2018-04-24T06:26:41.380Z,5.62
2018-04-24T06:29:09.748Z,7.28
2018-04-24T06:31:38.100Z,6.17
2018-04-24T06:34:06.569Z,6.60
2018-04-24T06:36:34.921Z,6.33
2018-04-24T06:39:03.325Z,7.33
2018-04-24T06:41:31.693Z,7.97
2018-04-24T06:44:00.042Z,7.30
2018-04-24T06:46:28.737Z,7.37
2018-04-24T06:48:57.094Z,7.50
2018-04-24T06:51:25.451Z,8.38
2018-04-24T06:53:53.839Z,7.43
2018-04-24T06:56:22.160Z,7.18
2018-04-24T06:58:50.500Z,7.18
2018-04-24T07:01:18.861Z,8.18
2018-04-24T07:03:47.194Z,7.82
2018-04-24T07:06:15.552Z,7.43
2018-04-24T07:08:43.884Z,7.45
2018-04-24T07:11:12.249Z,7.32
2018-04-24T07:13:40.580Z,6.95
2018-04-24T07:16:08.936Z,8.15
2018-04-24T07:18:37.277Z,7.70
2018-04-24T07:21:05.632Z,6.78
2018-04-24T07:23:33.969Z,6.97
2018-04-24T07:26:02.329Z,6.70
2018-04-24T07:28:30.666Z,7.18
2018-04-24T07:30:59.025Z,8.38
2018-04-24T07:33:27.360Z,8.32
2018-04-24T07:35:55.712Z,8.00
2018-04-24T07:38:24.045Z,7.30
2018-04-24T07:40:52.404Z,8.27
2018-04-24T07:43:20.736Z,8.63
2018-04-24T07:45:49.092Z,8.60
2018-04-24T07:48:17.423Z,8.27
2018-04-24T07:50:45.785Z,8.75
2018-04-24T07:53:14.117Z,9.43
2018-04-24T07:55:42.476Z,9.30
2018-04-24T07:58:10.812Z,8.93
2018-04-24T08:00:39.152Z,8.30
2018-04-24T08:03:07.513Z,8.07
2018-04-24T08:05:35.843Z,7.32
2018-04-24T08:08:04.201Z,8.50
2018-04-24T08:10:32.545Z,9.05
2018-04-24T08:13:00.897Z,8.10
2018-04-24T08:15:29.236Z,8.85
2018-04-24T08:17:57.592Z,8.07
2018-04-24T08:20:25.925Z,8.35
2018-04-24T08:22:54.323Z,8.15
2018-04-24T08:25:22.620Z,8.80
2018-04-24T08:27:50.981Z,8.30
2018-04-24T08:30:19.318Z,9.30
2018-04-24T08:32:47.675Z,8.85
2018-04-24T08:35:16.008Z,8.77
2018-04-24T08:37:44.368Z,8.95
2018-04-24T08:40:12.714Z,10.00
2018-04-24T08:42:41.072Z,9.95
2018-04-24T08:45:09.400Z,9.83
2018-04-24T08:47:37.756Z,9.85
2018-04-24T08:50:06.101Z,10.98
2018-04-24T08:52:34.465Z,11.25
2018-04-24T08:55:02.809Z,11.10
2018-04-24T08:57:31.177Z,11.60
2018-04-24T08:59:59.521Z,12.82
2018-04-24T09:02:27.898Z,12.65
2018-04-24T09:04:56.232Z,11.35
2018-04-24T09:07:24.593Z,13.35
2018-04-24T09:09:52.932Z,12.60
2018-04-24T09:12:21.292Z,12.60
2018-04-24T09:14:49.653Z,13.73
2018-04-24T09:17:18.008Z,13.80
2018-04-24T09:19:46.353Z,12.98
2018-04-24T09:22:14.712Z,12.48
2018-04-24T09:24:43.065Z,14.15
2018-04-24T09:27:11.439Z,13.05
2018-04-24T09:29:39.768Z,13.48
2018-04-24T09:32:08.137Z,14.80
2018-04-24T09:34:36.472Z,13.25
2018-04-24T09:37:04.841Z,13.45
2018-04-24T09:39:33.185Z,14.30
2018-04-24T09:42:01.560Z,14.98
2018-04-24T09:44:29.914Z,14.05
2018-04-24T09:46:58.264Z,15.60
2018-04-24T09:49:26.673Z,14.65
2018-04-24T09:51:54.977Z,16.05
2018-04-24T09:54:23.325Z,16.55
2018-04-24T09:56:51.720Z,17.33
2018-04-24T09:59:20.061Z,18.23
2018-04-24T10:01:48.396Z,18.27
2018-04-24T10:04:16.760Z,17.80
2018-04-24T10:06:45.104Z,17.47
2018-04-24T10:09:13.464Z,19.90
2018-04-24T10:11:41.800Z,18.00
2018-04-24T10:14:10.162Z,20.20
2018-04-24T10:16:42.394Z,20.70
2018-04-24T10:19:11.408Z,19.50
2018-04-24T10:21:39.736Z,20.47
2018-04-24T10:24:08.101Z,20.90
2018-04-24T10:26:37.389Z,19.80
2018-04-24T10:29:05.758Z,21.35
2018-04-24T10:31:34.093Z,19.70
2018-04-24T10:34:02.457Z,20.23
2018-04-24T10:36:30.802Z,20.03
2018-04-24T10:38:59.195Z,20.30
2018-04-24T10:41:27.525Z,19.67
2018-04-24T10:43:55.940Z,20.33
2018-04-24T10:46:24.249Z,21.70
2018-04-24T10:48:52.608Z,20.20
2018-04-24T10:51:20.953Z,20.07
2018-04-24T10:53:50.258Z,22.85
2018-04-24T10:56:18.772Z,22.17
2018-04-24T10:58:47.127Z,23.03
2018-04-24T11:01:15.472Z,21.27
2018-04-24T11:03:43.832Z,22.20
2018-04-24T11:06:12.164Z,22.50
2018-04-24T11:08:40.524Z,21.27
2018-04-24T11:11:08.860Z,20.47
2018-04-24T11:13:37.992Z,22.17
2018-04-24T11:16:06.324Z,21.37
2018-04-24T11:18:34.690Z,23.57
2018-04-24T11:21:03.029Z,21.65
2018-04-24T11:23:31.385Z,22.77
2018-04-24T11:25:59.725Z,22.53
2018-04-24T11:28:28.085Z,23.87
2018-04-24T11:30:56.443Z,23.17
2018-04-24T11:33:25.449Z,24.48
2018-04-24T11:35:53.814Z,24.97
2018-04-24T11:38:22.148Z,26.30
2018-04-24T11:40:50.486Z,25.65
2018-04-24T11:43:18.849Z,27.70
2018-04-24T11:45:47.188Z,26.77
2018-04-24T11:48:15.561Z,27.67
2018-04-24T11:50:44.033Z,28.77
2018-04-24T11:53:12.426Z,26.40
2018-04-24T11:55:40.765Z,28.63
2018-04-24T11:58:09.126Z,30.20
2018-04-24T12:00:37.458Z,28.60
2018-04-24T12:03:05.813Z,26.97
2018-04-24T12:05:34.152Z,26.63
2018-04-24T12:08:02.498Z,26.60
2018-04-24T12:10:31.800Z,27.75
2018-04-24T12:13:00.149Z,27.40
2018-04-24T12:15:28.509Z,29.53
2018-04-24T12:17:56.980Z,28.30
2018-04-24T12:20:25.566Z,28.87
2018-04-24T12:22:54.142Z,30.02
2018-04-24T12:25:22.537Z,28.55
2018-04-24T12:27:50.885Z,30.10
2018-04-24T12:30:19.420Z,31.92
2018-04-24T12:32:47.756Z,31.20
2018-04-24T12:35:16.213Z,31.50
2018-04-24T12:37:44.540Z,32.10
2018-04-24T12:40:12.919Z,31.90
2018-04-24T12:42:41.276Z,34.33
2018-04-24T12:45:09.692Z,31.80
2018-04-24T12:47:37.997Z,32.33
2018-04-24T12:50:06.369Z,31.90
2018-04-24T12:52:34.728Z,34.20
2018-04-24T12:55:03.089Z,34.50
2018-04-24T12:57:31.429Z,36.13
2018-04-24T13:00:00.715Z,34.83
2018-04-24T13:02:29.088Z,32.63
2018-04-24T13:04:57.576Z,30.50
2018-04-24T13:07:25.904Z,29.63
2018-04-24T13:09:54.322Z,32.30
2018-04-24T13:12:22.658Z,30.90
2018-04-24T13:14:51.157Z,34.85
2018-04-24T13:17:19.493Z,33.00
2018-04-24T13:19:47.845Z,33.80
2018-04-24T13:22:16.224Z,31.33
2018-04-24T13:24:44.593Z,31.43
2018-04-24T13:27:12.925Z,31.27
2018-04-24T13:29:41.285Z,30.50
2018-04-24T13:32:09.621Z,30.27
2018-04-24T13:34:37.972Z,30.43
2018-04-24T13:37:06.360Z,30.00
2018-04-24T13:39:34.670Z,31.17
2018-04-24T13:42:03.068Z,35.07
2018-04-24T13:44:31.362Z,38.20
2018-04-24T13:46:59.735Z,37.30
2018-04-24T13:49:28.091Z,33.35
2018-04-24T13:51:56.441Z,33.03
2018-04-24T13:54:24.809Z,31.58
2018-04-24T13:56:53.148Z,29.50
2018-04-24T13:59:21.513Z,30.20
2018-04-24T14:01:49.851Z,25.90
2018-04-24T14:04:18.501Z,24.48
2018-04-24T14:06:46.840Z,23.23
2018-04-24T14:09:15.201Z,26.43
2018-04-24T14:11:43.532Z,26.57
2018-04-24T14:14:11.874Z,29.47
2018-04-24T14:16:40.229Z,29.63
2018-04-24T14:19:08.564Z,30.90
2018-04-24T14:21:36.971Z,31.67
2018-04-24T14:24:05.270Z,32.07
2018-04-24T14:26:34.614Z,29.03
2018-04-24T14:29:02.952Z,27.70
2018-04-24T14:31:31.316Z,25.90
2018-04-24T14:33:59.657Z,27.45
2018-04-24T14:36:28.021Z,31.07
2018-04-24T14:38:56.357Z,33.77
2018-04-24T14:41:24.750Z,32.15
2018-04-24T14:43:53.200Z,28.03
2018-04-24T14:46:21.636Z,28.30
2018-04-24T14:48:49.969Z,27.73
2018-04-24T14:51:18.321Z,26.10
2018-04-24T14:53:46.656Z,28.73
2018-04-24T14:56:15.021Z,26.75
2018-04-24T14:58:43.361Z,25.93
2018-04-24T15:01:11.724Z,25.23
2018-04-24T15:03:40.065Z,26.13
2018-04-24T15:06:08.429Z,27.60
2018-04-24T15:08:36.768Z,28.55
2018-04-24T15:11:05.125Z,26.13
2018-04-24T15:13:33.461Z,28.33
2018-04-24T15:16:01.817Z,27.30
2018-04-24T15:18:30.161Z,29.37
2018-04-24T15:20:58.505Z,29.20
2018-04-24T15:23:26.849Z,29.00
2018-04-24T15:25:55.213Z,28.27
2018-04-24T15:28:23.541Z,30.00
2018-04-24T15:30:51.904Z,29.13
2018-04-24T15:33:20.249Z,30.20
2018-04-24T15:35:48.614Z,28.30
2018-04-24T15:38:16.957Z,31.30
2018-04-24T15:40:45.313Z,31.07
2018-04-24T15:43:13.652Z,28.40
2018-04-24T15:45:42.008Z,30.80
2018-04-24T15:48:10.349Z,29.73
2018-04-24T15:50:38.717Z,28.17
2018-04-24T15:53:07.061Z,26.20
2018-04-24T15:55:35.424Z,27.82
2018-04-24T15:58:03.756Z,28.00
2018-04-24T16:00:32.114Z,25.30
2018-04-24T16:03:00.463Z,26.20
2018-04-24T16:05:28.816Z,24.90
2018-04-24T16:07:57.155Z,25.93
2018-04-24T16:10:25.511Z,25.12
2018-04-24T16:12:53.864Z,23.80
2018-04-24T16:15:22.206Z,23.52
2018-04-24T16:17:50.548Z,25.47
2018-04-24T16:20:19.497Z,25.90
2018-04-24T16:22:47.852Z,24.63
2018-04-24T16:25:16.189Z,24.80
2018-04-24T16:27:44.544Z,25.60
2018-04-24T16:30:12.952Z,27.27
2018-04-24T16:32:41.249Z,25.02
2018-04-24T16:35:09.589Z,23.30
2018-04-24T16:37:37.940Z,21.70
2018-04-24T16:40:06.280Z,23.40
2018-04-24T16:42:34.628Z,23.20
2018-04-24T16:45:02.971Z,24.57
2018-04-24T16:47:31.316Z,22.90
2018-04-24T16:49:59.648Z,20.60
2018-04-24T16:52:28.016Z,21.77
2018-04-24T16:54:56.354Z,21.57
2018-04-24T16:57:24.744Z,21.00
2018-04-24T16:59:54.100Z,23.90
2018-04-24T17:02:22.461Z,22.27
2018-04-24T17:04:50.976Z,21.17
2018-04-24T17:07:19.340Z,22.30
2018-04-24T17:09:47.683Z,23.60
2018-04-24T17:12:16.042Z,21.70
2018-04-24T17:14:44.372Z,21.67
2018-04-24T17:17:12.736Z,23.45
2018-04-24T17:19:41.074Z,21.87
2018-04-24T17:22:09.488Z,22.63
2018-04-24T17:24:37.825Z,21.40
2018-04-24T17:27:07.241Z,23.00
2018-04-24T17:29:35.581Z,22.43
2018-04-24T17:32:03.927Z,21.10
2018-04-24T17:34:32.268Z,21.30
2018-04-24T17:37:00.628Z,22.40
2018-04-24T17:39:28.991Z,21.45
2018-04-24T17:41:57.416Z,22.50
2018-04-24T17:44:25.744Z,21.40
2018-04-24T17:46:54.884Z,21.65
2018-04-24T17:49:23.225Z,21.60
2018-04-24T17:51:51.580Z,22.47
2018-04-24T17:54:19.937Z,21.20
2018-04-24T17:56:48.292Z,23.20
2018-04-24T17:59:16.633Z,21.92
2018-04-24T18:01:45.027Z,24.67
2018-04-24T18:04:13.312Z,24.47
2018-04-24T18:06:41.694Z,24.57
2018-04-24T18:09:10.028Z,26.30
2018-04-24T18:11:38.385Z,26.00
2018-04-24T18:14:06.721Z,25.87
2018-04-24T18:16:36.050Z,25.57
2018-04-24T18:19:04.393Z,26.80
2018-04-24T18:21:32.773Z,25.83
2018-04-24T18:24:01.080Z,26.85
2018-04-24T18:26:29.424Z,25.47
2018-04-24T18:28:57.789Z,25.30
2018-04-24T18:31:26.130Z,27.70
2018-04-24T18:33:54.499Z,26.25
2018-04-24T18:36:22.875Z,26.83
2018-04-24T18:38:51.235Z,27.17
2018-04-24T18:41:19.562Z,28.40
2018-04-24T18:43:47.916Z,29.43
2018-04-24T18:46:16.256Z,28.63
2018-04-24T18:48:44.613Z,29.30
2018-04-24T18:51:13.862Z,31.60
2018-04-24T18:53:42.153Z,31.00
2018-04-24T18:56:10.493Z,29.48
2018-04-24T18:58:38.877Z,31.10
2018-04-24T19:01:07.196Z,31.15
2018-04-24T19:03:35.576Z,29.30
2018-04-24T19:06:03.949Z,31.00
2018-04-24T19:08:32.296Z,30.07
2018-04-24T19:11:04.517Z,31.30
2018-04-24T19:13:32.873Z,28.80
2018-04-24T19:16:01.217Z,29.23
2018-04-24T19:18:35.112Z,30.10
2018-04-24T19:21:03.457Z,30.17
2018-04-24T19:23:31.811Z,28.17
2018-04-24T19:26:00.168Z,28.15
2018-04-24T19:28:28.532Z,26.02
2018-04-24T19:30:56.873Z,26.43
2018-04-24T19:33:26.686Z,24.70
2018-04-24T19:35:55.808Z,23.83
2018-04-24T19:38:24.168Z,25.30
2018-04-24T19:40:58.247Z,22.85
2018-04-24T19:43:26.548Z,23.73
2018-04-24T19:45:54.894Z,23.65
2018-04-24T19:48:28.933Z,23.02
2018-04-24T19:50:57.266Z,23.00
2018-04-24T19:53:25.625Z,23.75
2018-04-24T19:55:53.961Z,24.30
2018-04-24T19:58:22.316Z,23.20
2018-04-24T20:00:50.651Z,24.33
2018-04-24T20:03:19.009Z,24.67
2018-04-24T20:05:47.340Z,25.00
2018-04-24T20:08:15.697Z,23.80
2018-04-24T20:10:44.036Z,23.70
2018-04-24T20:13:12.397Z,25.60
2018-04-24T20:15:40.738Z,25.50
2018-04-24T20:18:09.103Z,24.77
2018-04-24T20:20:37.437Z,23.20
2018-04-24T20:23:05.796Z,25.20
2018-04-24T20:25:34.138Z,25.77
2018-04-24T20:28:02.504Z,27.50
2018-04-24T20:30:30.843Z,25.30
2018-04-24T20:32:59.196Z,28.10
2018-04-24T20:35:27.533Z,26.00
2018-04-24T20:37:55.917Z,28.70
2018-04-24T20:40:24.244Z,26.30
2018-04-24T20:42:52.584Z,27.73
2018-04-24T20:45:20.940Z,27.57
2018-04-24T20:47:49.284Z,27.87
2018-04-24T20:50:17.636Z,27.92
2018-04-24T20:52:45.990Z,28.05
2018-04-24T20:55:14.342Z,28.97
2018-04-24T20:57:43.473Z,27.08
2018-04-24T21:00:11.836Z,27.70
2018-04-24T21:02:40.171Z,26.23
2018-04-24T21:05:08.533Z,28.00
2018-04-24T21:07:36.869Z,27.67
2018-04-24T21:10:05.228Z,27.13
2018-04-24T21:12:33.564Z,27.80
2018-04-24T21:15:01.929Z,27.20
2018-04-24T21:17:30.256Z,29.60
2018-04-24T21:19:58.625Z,28.63
2018-04-24T21:22:26.952Z,29.70
2018-04-24T21:24:55.307Z,29.50
2018-04-24T21:27:23.648Z,28.77
2018-04-24T21:29:52.004Z,27.40
2018-04-24T21:32:20.348Z,29.70
2018-04-24T21:34:48.711Z,28.13
2018-04-24T21:37:17.047Z,30.07
2018-04-24T21:39:45.401Z,30.70
2018-04-24T21:42:13.739Z,29.80
2018-04-24T21:44:42.109Z,30.67
2018-04-24T21:47:10.457Z,30.65
2018-04-24T21:49:41.290Z,31.20
2018-04-24T21:52:10.376Z,30.75
2018-04-24T21:54:39.733Z,32.57
2018-04-24T21:57:08.271Z,31.00
2018-04-24T21:59:36.899Z,31.53
2018-04-24T22:02:05.256Z,32.40
2018-04-24T22:04:33.626Z,33.13
2018-04-24T22:07:01.961Z,32.43
2018-04-24T22:09:30.321Z,35.03
2018-04-24T22:11:58.805Z,34.13
2018-04-24T22:14:27.159Z,37.13
2018-04-24T22:16:55.501Z,39.47
2018-04-24T22:19:24.828Z,35.88
2018-04-24T22:21:53.321Z,38.75
2018-04-24T22:24:21.744Z,39.97
2018-04-24T22:26:50.800Z,39.60
2018-04-24T22:29:19.160Z,41.35
2018-04-24T22:31:47.501Z,44.20
2018-04-24T22:34:15.865Z,44.40
2018-04-24T22:36:44.193Z,45.27
2018-04-24T22:39:13.437Z,44.60
2018-04-24T22:41:41.777Z,45.23
2018-04-24T22:44:10.136Z,46.47
2018-04-24T22:46:38.472Z,48.13
2018-04-24T22:49:06.836Z,46.27
2018-04-24T22:51:35.208Z,43.75
2018-04-24T22:54:03.542Z,47.50
2018-04-24T22:56:31.900Z,45.70
2018-04-24T22:59:00.237Z,46.47
2018-04-24T23:01:28.589Z,46.63
2018-04-24T23:03:56.920Z,43.00
2018-04-24T23:06:25.281Z,43.20
2018-04-24T23:08:53.608Z,43.20
2018-04-24T23:11:33.815Z,41.97
2018-04-24T23:14:19.864Z,39.53
2018-04-24T23:17:05.873Z,39.67
2018-04-24T23:19:51.912Z,39.70
2018-04-24T23:22:29.925Z,39.03
2018-04-24T23:24:58.280Z,39.27
2018-04-24T23:27:26.612Z,38.43
2018-04-24T23:29:54.964Z,39.10
2018-04-24T23:32:23.302Z,38.10
2018-04-24T23:34:51.656Z,36.17
2018-04-24T23:37:20.020Z,38.93
2018-04-24T23:39:48.381Z,40.03
2018-04-24T23:42:16.716Z,39.50
2018-04-24T23:44:45.074Z,37.57
2018-04-24T23:47:13.400Z,35.67
2018-04-24T23:49:41.752Z,37.70
2018-04-24T23:52:10.109Z,38.33
2018-04-24T23:54:38.448Z,36.83
2018-04-24T23:57:06.801Z,38.20
2018-04-24T23:59:35.136Z,35.90
